Time;durP1;ratioP1;P1;durP2;ratioP2;P2;SDS_P1;SDS_P2;PMS_P1;PMS_P2;Temp;Humidity;BMP_temperature;BMP_pressure;BME280_temperature;BME280_humidity;BME280_pressure;Samples;Min_cycle;Max_cycle;Signal;HPM_P1;HPM_P2
2021/05/31 00:00:25;;;;;;;2.92;0.70;;;;;;;12.16;100.00;97428.72;4993785;28;20034;-83
2021/05/31 00:02:51;;;;;;;0.68;0.35;;;;;;;12.17;100.00;97428.63;4977473;28;20564;-82
2021/05/31 00:05:22;;;;;;;0.47;0.47;;;;;;;12.21;100.00;97427.44;4977622;28;20472;-82
2021/05/31 00:07:47;;;;;;;0.35;0.35;;;;;;;12.27;100.00;97431.53;4977863;28;20120;-82
2021/05/31 00:10:13;;;;;;;1.02;0.55;;;;;;;12.27;100.00;97415.44;4977510;28;20118;-82
2021/05/31 00:12:38;;;;;;;0.32;0.32;;;;;;;12.32;100.00;97427.56;4977767;28;20486;-82
2021/05/31 00:15:06;;;;;;;1.65;0.43;;;;;;;12.31;100.00;97428.50;4977591;28;20096;-83
2021/05/31 00:17:31;;;;;;;0.80;0.80;;;;;;;12.29;100.00;97427.75;4994060;28;20041;-81
2021/05/31 00:19:57;;;;;;;0.40;0.40;;;;;;;12.09;100.00;97424.78;5002554;28;20026;-83
2021/05/31 00:22:23;;;;;;;0.30;0.30;;;;;;;12.03;100.00;97419.84;4996755;28;20037;-83
2021/05/31 00:24:50;;;;;;;1.92;1.02;;;;;;;12.01;100.00;97430.66;5007780;28;20024;-81
2021/05/31 00:27:16;;;;;;;1.17;0.85;;;;;;;11.94;100.00;97407.91;5000418;28;20040;-82
2021/05/31 00:29:42;;;;;;;0.17;0.13;;;;;;;12.13;100.00;97421.75;5016443;28;20080;-82
2021/05/31 00:32:08;;;;;;;1.13;0.50;;;;;;;12.17;100.00;97420.59;4997430;28;20018;-82
2021/05/31 00:34:35;;;;;;;1.25;0.77;;;;;;;12.15;100.00;97411.78;4989243;28;20029;-81
2021/05/31 00:37:00;;;;;;;0.20;0.15;;;;;;;12.14;100.00;97407.41;4996993;28;20032;-82
2021/05/31 00:39:26;;;;;;;0.52;0.38;;;;;;;12.21;100.00;97414.03;5002213;28;20037;-82
2021/05/31 00:41:53;;;;;;;0.57;0.47;;;;;;;12.32;100.00;97419.50;4999632;28;20091;-82
2021/05/31 00:44:22;;;;;;;0.52;0.40;;;;;;;12.37;100.00;97420.03;4981003;28;20057;-82
2021/05/31 00:46:50;;;;;;;0.30;0.30;;;;;;;12.34;100.00;97422.91;4980454;28;20040;-82
2021/05/31 00:49:24;;;;;;;0.55;0.55;;;;;;;12.31;100.00;97414.22;4991801;28;20119;-82
2021/05/31 00:51:50;;;;;;;0.65;0.60;;;;;;;12.31;100.00;97409.72;5000565;28;20124;-82
2021/05/31 00:54:17;;;;;;;0.10;0.10;;;;;;;12.39;100.00;97414.56;4996212;28;20030;-82
2021/05/31 00:56:44;;;;;;;0.65;0.65;;;;;;;12.32;100.00;97408.78;4980288;28;20092;-82
2021/05/31 00:59:10;;;;;;;0.38;0.38;;;;;;;12.32;100.00;97402.53;4999551;28;20452;-82
2021/05/31 01:01:36;;;;;;;0.38;0.30;;;;;;;12.25;100.00;97399.44;5008030;28;20063;-83
2021/05/31 01:04:02;;;;;;;1.25;0.98;;;;;;;12.10;100.00;97403.22;5016170;28;20037;-82
2021/05/31 01:06:36;;;;;;;0.65;0.57;;;;;;;11.96;100.00;97395.28;5015953;28;20081;-82
2021/05/31 01:09:17;;;;;;;0.57;0.57;;;;;;;11.84;100.00;97386.25;4999359;28;20038;-81
2021/05/31 01:12:11;;;;;;;0.28;0.28;;;;;;;11.86;100.00;97395.06;5016398;28;20029;-81
2021/05/31 01:15:01;;;;;;;0.25;0.13;;;;;;;11.76;100.00;97395.78;5010467;28;20029;-81
2021/05/31 01:17:38;;;;;;;0.20;0.20;;;;;;;11.77;100.00;97384.97;4980267;28;20088;-81
2021/05/31 01:20:22;;;;;;;0.17;0.17;;;;;;;11.78;100.00;97385.84;4995826;28;20057;-81
2021/05/31 01:22:49;;;;;;;0.35;0.35;;;;;;;11.83;100.00;97383.69;5002576;28;20103;-81
2021/05/31 01:25:37;;;;;;;0.55;0.55;;;;;;;11.67;100.00;97361.56;4983219;28;20486;-81
2021/05/31 01:28:12;;;;;;;1.00;0.70;;;;;;;11.75;100.00;97386.06;4991003;28;20092;-82
2021/05/31 01:30:48;;;;;;;0.20;0.20;;;;;;;11.80;100.00;97384.78;5015213;28;20045;-83
2021/05/31 01:33:17;;;;;;;0.50;0.50;;;;;;;11.87;100.00;97374.50;4990819;28;20048;-82
2021/05/31 01:35:44;;;;;;;0.45;0.43;;;;;;;12.02;100.00;97378.78;4997919;28;20040;-82
2021/05/31 01:38:10;;;;;;;0.73;0.35;;;;;;;12.14;100.00;97374.34;4989216;28;20028;-82
2021/05/31 01:40:35;;;;;;;1.77;0.35;;;;;;;12.13;100.00;97375.31;4996058;28;20494;-82
2021/05/31 01:43:04;;;;;;;0.20;0.20;;;;;;;12.17;100.00;97368.78;5012541;28;20448;-83
2021/05/31 01:45:30;;;;;;;1.15;0.90;;;;;;;12.22;100.00;97372.84;4994992;28;20136;-83
2021/05/31 01:47:57;;;;;;;0.38;0.35;;;;;;;12.19;100.00;97372.19;4987015;28;20029;-83
2021/05/31 01:50:23;;;;;;;0.47;0.40;;;;;;;12.24;100.00;97373.56;5006910;28;20025;-83
2021/05/31 01:52:48;;;;;;;0.35;0.35;;;;;;;12.16;100.00;97362.56;5015149;28;20033;-82
2021/05/31 01:55:15;;;;;;;2.10;0.70;;;;;;;12.27;100.00;97376.06;5015057;28;20113;-82
2021/05/31 01:57:45;;;;;;;0.40;0.40;;;;;;;12.19;100.00;97375.75;4998647;28;20021;-82
2021/05/31 02:00:12;;;;;;;0.20;0.20;;;;;;;12.24;100.00;97367.38;4997732;28;20113;-82
2021/05/31 02:02:38;;;;;;;0.85;0.57;;;;;;;12.31;100.00;97374.88;4995478;28;20477;-83
2021/05/31 02:05:08;;;;;;;0.65;0.60;;;;;;;12.25;100.00;97364.56;4979111;28;20600;-82
2021/05/31 02:07:37;;;;;;;0.50;0.47;;;;;;;12.30;100.00;97373.16;4995486;28;20473;-83
2021/05/31 02:10:04;;;;;;;0.47;0.47;;;;;;;12.34;100.00;97363.91;4979491;28;20025;-82
2021/05/31 02:12:36;;;;;;;0.65;0.65;;;;;;;12.33;100.00;97359.53;4979093;28;20041;-83
2021/05/31 02:15:07;;;;;;;0.90;0.82;;;;;;;12.37;100.00;97358.31;4995275;28;20499;-83
2021/05/31 02:17:45;;;;;;;0.35;0.25;;;;;;;12.39;100.00;97350.19;4998449;28;20037;-83
2021/05/31 02:20:13;;;;;;;0.75;0.68;;;;;;;12.41;100.00;97351.78;5005305;28;20179;-82
2021/05/31 02:22:49;;;;;;;1.55;0.65;;;;;;;12.37;100.00;97354.78;4995273;28;20026;-82
2021/05/31 02:25:16;;;;;;;0.38;0.38;;;;;;;12.29;100.00;97343.75;4996728;28;20049;-82
2021/05/31 02:27:43;;;;;;;0.63;0.63;;;;;;;12.31;100.00;97344.50;5014915;28;20485;-83
2021/05/31 02:30:10;;;;;;;0.57;0.52;;;;;;;12.35;100.00;97340.63;4980876;28;20053;-83
2021/05/31 02:32:35;;;;;;;1.00;0.68;;;;;;;12.28;100.00;97334.00;4978640;28;20084;-83
2021/05/31 02:35:01;;;;;;;0.52;0.52;;;;;;;12.34;100.00;97342.47;4994703;28;20065;-83
2021/05/31 02:37:34;;;;;;;0.25;0.25;;;;;;;12.32;100.00;97338.19;4979338;28;20029;-83
2021/05/31 02:40:01;;;;;;;1.20;0.85;;;;;;;12.36;100.00;97339.69;5012414;28;20458;-83
2021/05/31 02:42:26;;;;;;;0.10;0.10;;;;;;;12.22;100.00;97335.28;4994449;28;20076;-82
2021/05/31 02:44:52;;;;;;;0.35;0.35;;;;;;;12.21;100.00;97335.44;4978458;28;20029;-82
2021/05/31 02:47:18;;;;;;;0.95;0.43;;;;;;;12.16;100.00;97330.38;4978024;28;20025;-83
2021/05/31 02:49:43;;;;;;;0.20;0.20;;;;;;;12.10;100.00;97332.63;4994927;28;20125;-82
2021/05/31 02:52:09;;;;;;;0.63;0.63;;;;;;;12.00;100.00;97326.25;4994331;28;20445;-83
2021/05/31 02:54:34;;;;;;;0.63;0.40;;;;;;;12.03;100.00;97332.22;4994533;28;20520;-83
2021/05/31 02:57:00;;;;;;;0.10;0.10;;;;;;;12.02;100.00;97329.66;4978251;28;20030;-83
2021/05/31 02:59:26;;;;;;;0.22;0.22;;;;;;;12.03;100.00;97347.47;4977914;28;20021;-83
2021/05/31 03:01:51;;;;;;;0.75;0.70;;;;;;;11.99;100.00;97340.59;4978443;28;20021;-83
2021/05/31 03:04:17;;;;;;;0.22;0.22;;;;;;;12.00;100.00;97337.78;4978246;28;20104;-83
2021/05/31 03:06:42;;;;;;;0.30;0.25;;;;;;;12.01;100.00;97339.50;4978959;28;20477;-83
2021/05/31 03:09:08;;;;;;;0.45;0.45;;;;;;;11.90;100.00;97328.72;4995060;28;20092;-83
2021/05/31 03:11:33;;;;;;;1.35;0.55;;;;;;;11.82;100.00;97323.88;4978344;28;20087;-84
2021/05/31 03:13:59;;;;;;;0.20;0.20;;;;;;;11.87;100.00;97337.78;4995676;28;20026;-83
2021/05/31 03:16:24;;;;;;;0.30;0.30;;;;;;;11.94;100.00;97344.44;4993938;28;20030;-83
2021/05/31 03:18:50;;;;;;;0.73;0.52;;;;;;;11.94;100.00;97327.50;4994731;28;20034;-83
2021/05/31 03:21:16;;;;;;;0.82;0.35;;;;;;;12.00;100.00;97327.06;4994374;28;20026;-82
2021/05/31 03:23:42;;;;;;;0.47;0.38;;;;;;;12.06;100.00;97325.81;4994635;28;20032;-82
2021/05/31 03:26:08;;;;;;;0.63;0.63;;;;;;;12.12;100.00;97331.56;4994531;28;20026;-81
2021/05/31 03:28:33;;;;;;;0.45;0.45;;;;;;;12.18;100.00;97333.78;4993801;28;20040;-79
2021/05/31 03:30:59;;;;;;;0.52;0.30;;;;;;;12.23;100.00;97336.16;4993892;28;20017;-80
2021/05/31 03:33:25;;;;;;;0.80;0.20;;;;;;;12.31;100.00;97337.31;4977702;28;20030;-81
2021/05/31 03:35:51;;;;;;;0.10;0.10;;;;;;;12.30;100.00;97330.25;4994306;28;20022;-80
2021/05/31 03:38:16;;;;;;;0.57;0.57;;;;;;;12.20;100.00;97329.19;4994049;28;20033;-80
2021/05/31 03:40:42;;;;;;;0.73;0.43;;;;;;;12.31;100.00;97337.31;4993881;28;20022;-80
2021/05/31 03:43:08;;;;;;;2.20;1.15;;;;;;;12.32;100.00;97328.31;4993784;28;20032;-80
2021/05/31 03:45:33;;;;;;;3.15;1.17;;;;;;;12.30;100.00;97321.34;4977260;28;20026;-79
2021/05/31 03:47:59;;;;;;;1.55;0.60;;;;;;;12.39;100.00;97336.78;4977496;28;20401;-79
2021/05/31 03:50:25;;;;;;;1.45;0.50;;;;;;;12.41;100.00;97330.31;4993567;28;20079;-78
2021/05/31 03:52:50;;;;;;;2.80;1.33;;;;;;;12.46;100.00;97336.19;4977525;28;20111;-79
2021/05/31 03:55:16;;;;;;;0.85;0.63;;;;;;;12.49;100.00;97325.25;4977440;28;20533;-78
2021/05/31 03:57:42;;;;;;;2.92;1.40;;;;;;;12.55;100.00;97331.16;4977201;28;20124;-79
2021/05/31 04:00:10;;;;;;;1.40;1.20;;;;;;;12.50;100.00;97326.97;4997207;28;20120;-80
2021/05/31 04:02:40;;;;;;;0.77;0.77;;;;;;;12.61;100.00;97336.06;4981174;28;20501;-79
2021/05/31 04:05:07;;;;;;;3.00;1.13;;;;;;;12.60;100.00;97340.56;4981175;28;20497;-78
2021/05/31 04:13:01;;;;;;;1.40;0.98;;;;;;;12.58;100.00;97339.81;5001205;28;20032;-82
2021/05/31 04:15:26;;;;;;;1.50;0.70;;;;;;;12.69;100.00;97347.09;4978929;28;20037;-79
2021/05/31 04:17:52;;;;;;;0.75;0.75;;;;;;;12.62;100.00;97340.44;4994630;28;20452;-80
2021/05/31 04:20:19;;;;;;;0.43;0.38;;;;;;;12.70;100.00;97335.38;4978326;28;20026;-81
2021/05/31 04:22:45;;;;;;;0.35;0.35;;;;;;;12.75;100.00;97343.94;4978223;28;20468;-81
2021/05/31 04:25:12;;;;;;;0.43;0.43;;;;;;;12.77;100.00;97344.69;4978659;28;20037;-81
2021/05/31 04:27:37;;;;;;;1.27;0.43;;;;;;;12.79;100.00;97338.25;4978633;28;20052;-80
2021/05/31 04:30:04;;;;;;;0.95;0.40;;;;;;;12.80;100.00;97331.03;4987987;28;20045;-81
2021/05/31 04:32:30;;;;;;;1.10;0.43;;;;;;;12.94;100.00;97338.94;4997347;28;20033;-82
2021/05/31 04:34:55;;;;;;;0.68;0.28;;;;;;;12.99;100.00;97334.06;5010605;28;20044;-81
2021/05/31 04:37:21;;;;;;;1.13;0.95;;;;;;;13.18;100.00;97336.25;4994814;28;20486;-82
2021/05/31 04:39:47;;;;;;;0.60;0.60;;;;;;;13.32;100.00;97344.97;4977870;28;20034;-81
2021/05/31 04:42:12;;;;;;;1.45;1.35;;;;;;;13.44;100.00;97344.03;4993991;28;20021;-82
2021/05/31 04:44:38;;;;;;;0.25;0.25;;;;;;;13.55;100.00;97343.22;4994513;28;20092;-80
2021/05/31 04:47:05;;;;;;;0.93;0.73;;;;;;;13.64;100.00;97347.03;4980717;28;20022;-81
2021/05/31 04:49:32;;;;;;;0.70;0.68;;;;;;;13.65;100.00;97343.38;4980852;28;20413;-81
2021/05/31 04:51:58;;;;;;;0.38;0.38;;;;;;;13.65;100.00;97338.00;5016344;28;20444;-82
2021/05/31 04:54:23;;;;;;;0.10;0.10;;;;;;;13.58;100.00;97327.72;5016352;28;20033;-82
2021/05/31 04:56:49;;;;;;;0.93;0.40;;;;;;;13.56;100.00;97336.88;4997576;28;20041;-84
2021/05/31 04:59:15;;;;;;;0.57;0.45;;;;;;;13.63;100.00;97337.25;5011864;28;20109;-82
2021/05/31 05:01:41;;;;;;;0.55;0.55;;;;;;;13.86;100.00;97341.69;4998334;28;20034;-81
2021/05/31 05:04:07;;;;;;;1.33;1.23;;;;;;;13.88;100.00;97345.09;4980710;28;20057;-82
2021/05/31 05:06:35;;;;;;;1.70;0.93;;;;;;;13.90;100.00;97348.56;5004109;28;20473;-81
2021/05/31 05:09:01;;;;;;;1.27;0.60;;;;;;;13.95;100.00;97344.53;4996159;28;20068;-81
2021/05/31 05:11:27;;;;;;;0.95;0.68;;;;;;;13.91;100.00;97350.25;4996126;28;20457;-81
2021/05/31 05:13:52;;;;;;;0.70;0.43;;;;;;;13.95;100.00;97343.66;4996091;28;20041;-80
2021/05/31 05:16:21;;;;;;;0.80;0.52;;;;;;;14.07;100.00;97340.84;4979947;28;20386;-81
2021/05/31 05:18:49;;;;;;;0.75;0.55;;;;;;;14.22;99.86;97344.16;4997883;28;20033;-81
2021/05/31 05:21:16;;;;;;;2.38;0.75;;;;;;;14.25;100.00;97337.66;5007593;28;20485;-81
2021/05/31 05:23:44;;;;;;;1.85;1.13;;;;;;;14.40;100.00;97347.22;4998982;28;20029;-82
2021/05/31 05:26:10;;;;;;;1.45;0.80;;;;;;;14.45;98.61;97343.22;4991270;28;20485;-82
2021/05/31 05:28:37;;;;;;;0.40;0.40;;;;;;;14.65;97.86;97358.59;5015001;28;20068;-80
2021/05/31 05:31:07;;;;;;;0.75;0.40;;;;;;;14.77;96.14;97353.19;4999070;28;20022;-82
2021/05/31 05:33:35;;;;;;;1.08;0.95;;;;;;;15.02;95.64;97360.97;4999691;28;20378;-82
2021/05/31 05:36:16;;;;;;;0.17;0.17;;;;;;;15.19;95.78;97357.72;4991528;28;20477;-81
2021/05/31 05:39:05;;;;;;;1.25;0.60;;;;;;;14.95;93.27;97362.47;4998313;28;20089;-81
2021/05/31 05:44:23;;;;;;;0.73;0.60;;;;;;;16.13;88.51;97357.72;5016803;28;20060;-83
2021/05/31 05:47:42;;;;;;;0.10;0.10;;;;;;;16.74;85.49;97353.19;5007789;28;20036;-83
2021/05/31 05:49:37;;;;;;;0.10;0.10;;;;;;;16.89;81.97;97364.47;5007479;28;20037;-82
2021/05/31 05:52:03;;;;;;;1.10;0.47;;;;;;;17.06;79.52;97366.50;5015852;28;20021;-82
2021/05/31 05:54:30;;;;;;;1.77;0.90;;;;;;;16.59;81.62;97352.72;5000456;28;20477;-82
2021/05/31 05:56:55;;;;;;;0.50;0.50;;;;;;;16.42;82.74;97356.03;4980810;28;20030;-82
2021/05/31 05:59:21;;;;;;;9.63;5.28;;;;;;;16.16;87.73;97362.84;5001753;28;20420;-83
2021/05/31 06:01:46;;;;;;;2.63;1.50;;;;;;;16.08;87.10;97362.69;4981968;28;20026;-82
2021/05/31 06:04:12;;;;;;;1.02;0.75;;;;;;;16.05;90.92;97355.72;4995379;28;20037;-83
2021/05/31 06:06:37;;;;;;;2.53;1.60;;;;;;;15.69;90.59;97351.63;4994831;28;20025;-82
2021/05/31 06:09:05;;;;;;;0.40;0.40;;;;;;;15.43;92.85;97355.66;4998045;28;20017;-83
2021/05/31 06:11:30;;;;;;;2.58;1.67;;;;;;;15.44;92.24;97346.59;4990952;28;20087;-83
2021/05/31 06:13:56;;;;;;;2.08;1.02;;;;;;;15.34;93.40;97342.13;4990655;28;20560;-83
2021/05/31 06:16:21;;;;;;;0.77;0.77;;;;;;;15.43;91.59;97338.63;5015291;28;20040;-83
2021/05/31 06:18:47;;;;;;;0.90;0.57;;;;;;;15.57;92.02;97347.28;4999204;28;20037;-82
2021/05/31 06:21:13;;;;;;;0.30;0.30;;;;;;;15.88;90.69;97333.84;4994534;28;20022;-83
2021/05/31 06:23:38;;;;;;;2.38;1.20;;;;;;;16.31;89.24;97326.41;4995787;28;20083;-84
2021/05/31 06:26:04;;;;;;;2.38;1.52;;;;;;;17.17;83.23;97345.59;4987649;28;20413;-83
2021/05/31 06:28:30;;;;;;;6.95;3.05;;;;;;;17.73;80.23;97350.31;5001272;28;20037;-84
2021/05/31 06:30:55;;;;;;;0.80;0.55;;;;;;;16.97;79.16;97340.31;4988302;28;20064;-83
2021/05/31 06:33:21;;;;;;;0.40;0.30;;;;;;;17.65;77.68;97347.50;4983668;28;20033;-82
2021/05/31 06:35:48;;;;;;;0.43;0.28;;;;;;;18.69;73.78;97350.94;5006514;28;20038;-83
2021/05/31 06:38:18;;;;;;;0.30;0.30;;;;;;;18.53;68.59;97345.31;4991285;28;20029;-82
2021/05/31 06:40:43;;;;;;;0.90;0.55;;;;;;;17.99;72.51;97323.50;4991361;28;20036;-81
2021/05/31 06:43:09;;;;;;;0.52;0.52;;;;;;;18.21;73.22;97334.00;4978403;28;20026;-83
2021/05/31 06:45:35;;;;;;;0.88;0.68;;;;;;;18.15;74.29;97340.00;5002301;28;20033;-84
2021/05/31 06:48:03;;;;;;;0.73;0.30;;;;;;;18.00;72.57;97314.38;4998404;28;20041;-83
2021/05/31 06:50:32;;;;;;;1.17;1.08;;;;;;;18.08;73.82;97334.31;5000814;28;20034;-83
2021/05/31 06:52:59;;;;;;;0.30;0.30;;;;;;;18.12;72.71;97324.06;4980021;28;20033;-83
2021/05/31 06:55:26;;;;;;;0.55;0.52;;;;;;;18.00;74.51;97326.06;4985208;28;20036;-82
2021/05/31 06:57:53;;;;;;;0.70;0.43;;;;;;;17.90;71.38;97335.22;4994976;28;20034;-81
2021/05/31 07:00:21;;;;;;;0.98;0.75;;;;;;;17.82;70.59;97344.03;5002489;28;20540;-81
2021/05/31 07:02:47;;;;;;;0.63;0.47;;;;;;;17.71;71.28;97328.84;4994361;28;20033;-82
2021/05/31 07:05:13;;;;;;;2.15;1.30;;;;;;;18.10;74.64;97331.44;5013713;28;20040;-82
2021/05/31 07:07:40;;;;;;;0.25;0.25;;;;;;;18.59;71.59;97338.44;5014099;28;20036;-82
2021/05/31 07:10:07;;;;;;;0.55;0.30;;;;;;;19.03;70.63;97334.91;4995148;28;20034;-82
2021/05/31 07:12:33;;;;;;;6.38;0.85;;;;;;;19.73;65.60;97331.41;5008128;28;20108;-83
2021/05/31 07:15:01;;;;;;;0.77;0.60;;;;;;;20.18;61.55;97330.38;5013955;28;20033;-82
2021/05/31 07:17:27;;;;;;;0.68;0.50;;;;;;;20.62;59.15;97339.31;4993090;28;20555;-83
2021/05/31 07:19:53;;;;;;;0.20;0.13;;;;;;;20.56;59.70;97340.81;4985925;28;20037;-81
2021/05/31 07:22:21;;;;;;;0.20;0.20;;;;;;;20.46;60.90;97338.22;4978020;28;20034;-82
2021/05/31 07:24:46;;;;;;;1.98;0.30;;;;;;;20.46;60.46;97340.06;4994556;28;20034;-82
2021/05/31 07:27:12;;;;;;;3.22;2.33;;;;;;;21.51;56.00;97318.69;4996411;28;20044;-82
2021/05/31 07:29:38;;;;;;;0.30;0.20;;;;;;;22.65;52.93;97334.84;4991223;28;20049;-82
2021/05/31 07:32:04;;;;;;;0.35;0.35;;;;;;;24.97;46.09;97341.66;5003499;28;20033;-81
2021/05/31 07:34:30;;;;;;;0.10;0.10;;;;;;;26.48;41.94;97354.31;4995192;28;20196;-82
2021/05/31 07:36:59;;;;;;;7.22;0.90;;;;;;;27.71;39.64;97358.00;5006318;28;20022;-81
2021/05/31 07:39:25;;;;;;;0.17;0.17;;;;;;;28.19;37.61;97356.84;5001383;28;20036;-83
2021/05/31 07:41:51;;;;;;;1.75;0.63;;;;;;;29.51;37.39;97358.38;5001087;28;20405;-83
2021/05/31 07:44:16;;;;;;;1.73;0.70;;;;;;;29.15;35.54;97352.56;4990109;28;20065;-82
2021/05/31 07:46:42;;;;;;;1.17;0.30;;;;;;;28.76;36.29;97359.00;4989258;28;20026;-83
2021/05/31 07:49:11;;;;;;;0.25;0.25;;;;;;;29.14;36.07;97348.09;4998933;28;20033;-82
2021/05/31 07:51:41;;;;;;;0.20;0.10;;;;;;;28.20;37.40;97358.56;5017431;28;20030;-82
2021/05/31 07:54:07;;;;;;;0.38;0.38;;;;;;;27.67;36.63;97351.22;5001263;28;20037;-83
2021/05/31 07:56:33;;;;;;;1.17;0.52;;;;;;;27.56;37.81;97344.44;5001161;28;20060;-82
2021/05/31 07:58:58;;;;;;;0.00;0.00;;;;;;;28.13;34.09;97335.69;5000675;28;20112;-82
2021/05/31 08:01:27;;;;;;;16.77;1.33;;;;;;;27.86;34.02;97323.78;4984774;28;20733;-82
2021/05/31 08:03:55;;;;;;;0.45;0.40;;;;;;;27.31;35.93;97340.50;5000790;28;20041;-82
2021/05/31 08:06:21;;;;;;;0.40;0.35;;;;;;;27.93;34.36;97334.78;4981520;28;20188;-82
2021/05/31 08:08:46;;;;;;;0.00;0.00;;;;;;;29.85;28.95;97317.72;5004043;28;20067;-82
2021/05/31 08:11:12;;;;;;;0.10;0.10;;;;;;;30.29;29.68;97328.66;5015165;28;20037;-83
2021/05/31 08:13:38;;;;;;;0.98;0.30;;;;;;;29.31;31.38;97327.31;4981072;28;20064;-82
2021/05/31 08:16:05;;;;;;;0.10;0.10;;;;;;;30.40;31.90;97336.25;4989675;28;20535;-82
2021/05/31 08:18:31;;;;;;;0.20;0.20;;;;;;;29.29;28.90;97317.53;5017030;28;20464;-82
2021/05/31 08:20:57;;;;;;;0.25;0.22;;;;;;;28.69;31.87;97318.75;4992467;28;20049;-82
2021/05/31 08:23:22;;;;;;;0.73;0.73;;;;;;;27.83;31.80;97323.34;5013630;28;20116;-82
2021/05/31 08:25:48;;;;;;;0.40;0.40;;;;;;;29.33;31.30;97327.94;4997146;28;20033;-82
2021/05/31 08:28:14;;;;;;;3.00;0.80;;;;;;;31.05;29.78;97318.22;4982446;28;20018;-83
2021/05/31 08:30:43;;;;;;;0.60;0.60;;;;;;;30.37;32.18;97331.13;4999853;28;20041;-83
2021/05/31 08:33:09;;;;;;;1.17;0.73;;;;;;;30.71;31.62;97327.03;5015962;28;20032;-82
2021/05/31 08:35:36;;;;;;;0.00;0.00;;;;;;;28.90;34.92;97346.91;4980838;28;20571;-82
2021/05/31 08:38:02;;;;;;;0.63;0.38;;;;;;;28.59;33.47;97337.59;4980351;28;20030;-83
2021/05/31 08:40:28;;;;;;;0.40;0.40;;;;;;;27.61;35.11;97346.53;5015959;28;20060;-82
2021/05/31 08:42:54;;;;;;;0.13;0.13;;;;;;;27.24;35.32;97348.69;5002288;28;20072;-84
2021/05/31 08:45:21;;;;;;;0.25;0.25;;;;;;;28.63;30.74;97327.84;5015789;28;20128;-82
2021/05/31 08:47:49;;;;;;;2.08;0.85;;;;;;;28.92;32.29;97331.00;4995005;28;20036;-82
2021/05/31 08:50:19;;;;;;;1.48;1.38;;;;;;;29.72;30.69;97323.31;5015026;28;20033;-81
2021/05/31 08:52:45;;;;;;;23.73;18.35;;;;;;;29.42;31.69;97321.09;4998636;28;20037;-82
2021/05/31 08:55:12;;;;;;;3.80;2.83;;;;;;;29.02;32.63;97330.53;4980845;28;20092;-81
2021/05/31 08:57:37;;;;;;;16.73;11.73;;;;;;;27.54;33.75;97313.53;5000008;28;20100;-81
2021/05/31 09:00:05;;;;;;;8.52;3.38;;;;;;;25.93;38.36;97342.22;5000227;28;20457;-81
2021/05/31 09:02:33;;;;;;;6.28;2.83;;;;;;;26.04;36.66;97319.75;5015987;28;20029;-80
2021/05/31 09:04:59;;;;;;;4.55;2.63;;;;;;;26.54;35.10;97315.09;5000901;28;20036;-81
2021/05/31 09:07:25;;;;;;;2.92;2.60;;;;;;;25.89;38.42;97324.44;4981132;28;20121;-80
2021/05/31 09:09:53;;;;;;;4.32;3.92;;;;;;;26.25;37.78;97317.00;4980094;28;20058;-81
2021/05/31 09:12:23;;;;;;;10.48;9.43;;;;;;;26.64;34.35;97305.44;4979985;28;20034;-81
2021/05/31 09:15:01;;;;;;;5.45;2.40;;;;;;;25.54;36.42;97303.41;4980656;28;20548;-82
2021/05/31 09:17:32;;;;;;;3.00;2.55;;;;;;;24.61;39.39;97297.78;4982679;28;20033;-81
2021/05/31 09:19:58;;;;;;;2.80;2.60;;;;;;;24.68;38.47;97290.50;4991485;28;20025;-81
2021/05/31 09:22:24;;;;;;;7.85;2.90;;;;;;;24.33;41.12;97291.25;5015487;28;20034;-81
2021/05/31 09:24:55;;;;;;;7.68;5.25;;;;;;;23.77;42.33;97311.72;5015599;28;20021;-81
2021/05/31 09:27:21;;;;;;;3.10;2.65;;;;;;;23.23;43.50;97301.66;5015500;28;20025;-80
2021/05/31 09:29:58;;;;;;;17.17;10.10;;;;;;;22.75;45.32;97293.72;4994117;28;20073;-80
2021/05/31 09:32:24;;;;;;;4.97;2.60;;;;;;;22.13;45.86;97285.34;5006639;28;20045;-80
2021/05/31 09:35:09;;;;;;;15.48;6.88;;;;;;;21.54;48.78;97267.50;5015402;28;20108;-81
2021/05/31 09:37:48;;;;;;;15.85;6.05;;;;;;;21.17;48.52;97286.16;5026276;28;20029;-81
2021/05/31 09:40:23;;;;;;;8.10;3.60;;;;;;;20.66;53.02;97273.59;4990893;28;20064;-80
2021/05/31 09:42:57;;;;;;;6.93;3.42;;;;;;;20.11;53.05;97285.84;4976343;28;20026;-82
2021/05/31 09:45:24;;;;;;;10.93;4.38;;;;;;;19.52;53.86;97284.75;4994973;28;20045;-80
2021/05/31 09:47:50;;;;;;;5.60;3.20;;;;;;;19.40;57.61;97275.16;4999011;28;20025;-80
2021/05/31 09:50:28;;;;;;;3.70;3.20;;;;;;;19.08;56.33;97270.22;4999071;28;20033;-79
2021/05/31 09:53:11;;;;;;;6.88;3.97;;;;;;;18.93;61.93;97278.03;4994047;28;20193;-80
2021/05/31 09:55:45;;;;;;;8.98;3.78;;;;;;;18.82;64.36;97280.13;4997899;28;20048;-80
2021/05/31 09:58:16;;;;;;;3.25;2.92;;;;;;;18.52;62.02;97272.31;4999625;28;20025;-79
2021/05/31 10:00:52;;;;;;;5.85;2.47;;;;;;;18.44;62.18;97283.88;4994076;28;20028;-80
2021/05/31 10:03:35;;;;;;;4.95;2.85;;;;;;;18.52;62.80;97278.56;4999593;28;20028;-79
2021/05/31 10:08:58;;;;;;;8.35;3.28;;;;;;;18.59;60.90;97258.00;4982104;28;20112;-80
2021/05/31 10:11:23;;;;;;;8.00;4.90;;;;;;;18.76;57.98;97262.63;5013741;28;20171;-79
2021/05/31 10:13:49;;;;;;;7.30;2.67;;;;;;;18.95;56.21;97264.31;4987080;28;20034;-80
2021/05/31 10:16:15;;;;;;;6.70;2.78;;;;;;;19.21;54.83;97275.25;5003987;28;20033;-81
2021/05/31 10:18:41;;;;;;;3.88;2.70;;;;;;;19.26;53.71;97256.66;4978823;28;20021;-78
2021/05/31 10:21:12;;;;;;;3.17;1.80;;;;;;;19.23;52.29;97273.25;4979022;28;20022;-79
2021/05/31 10:23:38;;;;;;;2.95;2.65;;;;;;;19.44;52.43;97265.69;4997466;28;20037;-79
2021/05/31 10:26:08;;;;;;;3.33;2.08;;;;;;;19.35;52.42;97261.16;4998227;28;20397;-81
2021/05/31 10:28:36;;;;;;;2.63;2.42;;;;;;;19.45;54.30;97245.66;4998534;28;20033;-80
2021/05/31 10:31:07;;;;;;;2.50;2.05;;;;;;;19.70;51.82;97249.44;4981189;28;20034;-81
2021/05/31 10:33:41;;;;;;;2.53;2.30;;;;;;;19.45;51.56;97240.25;4960507;28;20073;-80
2021/05/31 10:36:16;;;;;;;13.18;2.40;;;;;;;19.72;50.68;97248.25;4981589;28;20165;-80
2021/05/31 10:38:45;;;;;;;6.00;2.20;;;;;;;20.05;49.36;97246.63;4991597;28;20076;-80
2021/05/31 10:41:17;;;;;;;3.55;1.95;;;;;;;20.67;47.68;97244.56;4959142;28;20037;-81
2021/05/31 10:43:48;;;;;;;2.35;1.73;;;;;;;21.08;46.63;97249.94;4958903;28;20038;-81
2021/05/31 10:46:17;;;;;;;2.17;1.95;;;;;;;21.38;47.11;97255.78;4966168;28;20040;-80
2021/05/31 10:48:49;;;;;;;4.13;1.65;;;;;;;21.99;43.70;97250.66;4968096;28;20379;-81
2021/05/31 10:51:20;;;;;;;2.30;1.98;;;;;;;22.10;43.03;97241.25;4966018;28;20029;-79
2021/05/31 10:53:46;;;;;;;2.30;2.10;;;;;;;22.23;42.22;97238.00;5012158;28;20539;-80
2021/05/31 10:56:21;;;;;;;2.75;1.70;;;;;;;21.79;41.78;97230.22;4981104;28;20026;-80
2021/05/31 10:58:52;;;;;;;6.03;2.38;;;;;;;22.76;40.94;97238.16;4959128;28;20067;-81
2021/05/31 11:01:21;;;;;;;3.78;1.83;;;;;;;22.37;41.20;97216.28;4967052;28;20561;-81
2021/05/31 11:03:52;;;;;;;4.15;2.40;;;;;;;22.27;43.12;97236.63;4982743;28;20065;-80
2021/05/31 11:06:21;;;;;;;2.00;1.63;;;;;;;21.96;41.07;97196.53;4974370;28;20034;-79
2021/05/31 11:08:49;;;;;;;2.53;1.80;;;;;;;21.69;42.51;97215.09;4968841;28;20168;-79
2021/05/31 11:11:31;;;;;;;2.15;1.95;;;;;;;22.02;41.73;97222.22;4977757;28;20087;-80
2021/05/31 11:13:58;;;;;;;3.85;1.83;;;;;;;21.95;41.80;97216.59;4966538;28;20029;-79
2021/05/31 11:16:23;;;;;;;2.67;1.52;;;;;;;21.55;40.82;97200.31;4982082;28;20401;-79
2021/05/31 11:18:56;;;;;;;11.52;2.00;;;;;;;21.49;43.27;97204.56;5011383;28;20033;-79
2021/05/31 11:21:37;;;;;;;6.20;2.40;;;;;;;21.46;42.47;97198.59;4978370;28;20397;-80
2021/05/31 11:24:10;;;;;;;2.30;1.70;;;;;;;21.61;41.08;97191.44;4965284;28;20030;-80
2021/05/31 11:26:38;;;;;;;4.38;1.77;;;;;;;21.50;40.91;97206.25;4975385;28;20526;-80
2021/05/31 11:29:07;;;;;;;7.70;2.00;;;;;;;21.17;41.12;97203.69;4998014;28;20107;-79
2021/05/31 11:31:33;;;;;;;3.28;1.80;;;;;;;21.14;41.90;97196.72;4980534;28;20087;-79
2021/05/31 11:34:00;;;;;;;1.88;1.63;;;;;;;21.12;40.89;97206.94;4993700;28;20038;-80
2021/05/31 11:36:44;;;;;;;2.22;2.03;;;;;;;21.19;41.55;97207.13;5009272;28;20112;-80
2021/05/31 11:39:17;;;;;;;3.80;1.90;;;;;;;21.33;41.90;97192.81;4996955;28;20030;-81
2021/05/31 11:41:53;;;;;;;4.22;1.60;;;;;;;21.44;43.15;97179.72;4985300;28;20021;-80
2021/05/31 11:44:31;;;;;;;5.43;2.15;;;;;;;21.83;44.03;97206.22;4998373;28;20045;-80